createdAt,value
2023-03-12T00:00:04.083Z,6.97
2023-03-12T00:02:07.203Z,6.50
2023-03-12T00:04:11.784Z,6.30
2023-03-12T00:06:15.310Z,6.80
2023-03-12T00:08:18.265Z,6.10
2023-03-12T00:10:22.166Z,5.60
2023-03-12T00:12:25.353Z,5.60
2023-03-12T00:14:28.502Z,5.40
2023-03-12T00:16:31.548Z,5.50
2023-03-12T00:18:34.546Z,5.40
2023-03-12T00:20:39.051Z,5.70
2023-03-12T00:22:42.035Z,5.23
2023-03-12T00:24:47.133Z,5.80
2023-03-12T00:26:50.551Z,6.07
2023-03-12T00:28:59.944Z,6.20
2023-03-12T00:31:03.364Z,6.00
2023-03-12T00:33:06.321Z,5.90
2023-03-12T00:35:10.121Z,6.83
2023-03-12T00:37:14.588Z,6.97
2023-03-12T00:39:17.710Z,7.87
2023-03-12T00:41:21.272Z,8.07
2023-03-12T00:43:24.488Z,8.20
2023-03-12T00:45:27.699Z,9.53
2023-03-12T00:47:31.860Z,9.23
2023-03-12T00:49:34.892Z,9.93
2023-03-12T00:51:38.058Z,10.33
2023-03-12T00:53:42.739Z,11.40
2023-03-12T00:55:46.133Z,11.00
2023-03-12T00:57:49.211Z,10.50
2023-03-12T00:59:52.452Z,10.63
2023-03-12T01:01:55.540Z,10.87
2023-03-12T01:04:00.557Z,11.10
2023-03-12T01:06:03.744Z,10.73
2023-03-12T01:08:07.314Z,11.60
2023-03-12T01:10:14.823Z,10.40
2023-03-12T01:12:17.982Z,11.03
2023-03-12T01:14:21.086Z,11.63
2023-03-12T01:16:28.274Z,10.73
2023-03-12T01:18:31.551Z,11.20
2023-03-12T01:20:34.711Z,10.50
2023-03-12T01:22:38.901Z,11.37
2023-03-12T01:24:42.086Z,11.63
2023-03-12T01:26:46.508Z,11.63
2023-03-12T01:28:49.991Z,11.23
2023-03-12T01:30:53.521Z,12.00
2023-03-12T01:32:56.597Z,12.47
2023-03-12T01:35:00.356Z,11.60
2023-03-12T01:37:05.952Z,12.37
2023-03-12T01:39:09.040Z,12.30
2023-03-12T01:41:12.301Z,11.83
2023-03-12T01:43:31.831Z,11.67
2023-03-12T01:46:05.118Z,11.63
2023-03-12T01:48:09.124Z,11.47
2023-03-12T01:50:12.225Z,12.17
2023-03-12T01:52:21.999Z,11.77
2023-03-12T01:54:29.213Z,11.40
2023-03-12T01:56:36.176Z,11.70
2023-03-12T01:58:43.783Z,12.20
2023-03-12T02:00:47.014Z,12.07
2023-03-12T02:02:52.465Z,12.20
2023-03-12T02:05:05.500Z,12.67
2023-03-12T02:07:11.021Z,12.17
2023-03-12T02:09:14.971Z,11.63
2023-03-12T02:11:18.121Z,12.33
2023-03-12T02:13:21.442Z,11.97
2023-03-12T02:15:26.043Z,11.90
2023-03-12T02:17:29.295Z,11.80
2023-03-12T02:19:42.727Z,11.57
2023-03-12T02:21:46.014Z,11.60
2023-03-12T02:23:57.387Z,11.00
2023-03-12T02:26:03.148Z,10.43
2023-03-12T02:28:09.023Z,10.87
2023-03-12T02:30:15.987Z,10.63
2023-03-12T02:32:25.296Z,10.03
2023-03-12T02:34:28.709Z,9.93
2023-03-12T02:36:31.933Z,9.53
2023-03-12T02:38:39.953Z,10.27
2023-03-12T02:40:48.796Z,9.83
2023-03-12T02:42:53.846Z,9.90
2023-03-12T02:44:57.038Z,9.70
2023-03-12T02:47:02.385Z,10.50
2023-03-12T02:49:05.954Z,9.57
2023-03-12T02:51:09.370Z,9.70
2023-03-12T02:53:12.460Z,9.87
2023-03-12T02:55:17.436Z,10.10
2023-03-12T02:57:20.425Z,9.47
2023-03-12T02:59:27.030Z,9.63
2023-03-12T03:01:30.129Z,9.80
2023-03-12T03:03:33.113Z,9.93
2023-03-12T03:05:37.835Z,8.90
2023-03-12T03:07:40.912Z,9.30
2023-03-12T03:09:44.031Z,8.60
2023-03-12T03:11:47.289Z,9.40
2023-03-12T03:13:50.388Z,9.13
2023-03-12T03:15:54.942Z,9.17
2023-03-12T03:17:58.453Z,8.70
2023-03-12T03:20:01.557Z,9.67
2023-03-12T03:22:05.094Z,8.97
2023-03-12T03:24:11.030Z,9.33
2023-03-12T03:26:14.772Z,8.90
2023-03-12T03:28:17.756Z,8.50
2023-03-12T03:30:21.543Z,8.20
2023-03-12T03:32:26.089Z,8.80
2023-03-12T03:34:32.260Z,9.50
2023-03-12T03:36:35.323Z,7.97
2023-03-12T03:38:38.472Z,9.10
2023-03-12T03:40:41.544Z,9.20
2023-03-12T03:42:45.997Z,8.60
2023-03-12T03:44:49.227Z,9.40
2023-03-12T03:46:53.418Z,8.70
2023-03-12T03:48:58.532Z,8.20
2023-03-12T03:51:02.347Z,8.47
2023-03-12T03:53:05.387Z,7.63
2023-03-12T03:55:08.900Z,8.03
2023-03-12T03:57:11.984Z,8.40
2023-03-12T03:59:16.706Z,8.00
2023-03-12T04:01:20.176Z,7.80
2023-03-12T04:03:23.331Z,7.60
2023-03-12T04:05:28.271Z,8.37
2023-03-12T04:07:31.368Z,7.47
2023-03-12T04:09:34.817Z,8.00
2023-03-12T04:11:38.156Z,7.53
2023-03-12T04:13:41.668Z,7.27
2023-03-12T04:15:48.599Z,7.60
2023-03-12T04:17:51.636Z,8.23
2023-03-12T04:19:54.690Z,7.93
2023-03-12T04:21:59.053Z,7.13
2023-03-12T04:24:02.115Z,7.33
2023-03-12T04:26:05.912Z,7.47
2023-03-12T04:28:11.401Z,7.47
2023-03-12T04:30:15.195Z,7.30
2023-03-12T04:32:18.613Z,7.70
2023-03-12T04:34:22.083Z,7.13
2023-03-12T04:36:25.870Z,7.80
2023-03-12T04:38:31.331Z,7.10
2023-03-12T04:40:34.408Z,7.20
2023-03-12T04:42:40.785Z,7.23
2023-03-12T04:44:43.798Z,7.63
2023-03-12T04:46:46.819Z,6.97
2023-03-12T04:48:49.837Z,7.57
2023-03-12T04:50:53.745Z,6.63
2023-03-12T04:52:58.096Z,6.83
2023-03-12T04:55:03.906Z,6.83
2023-03-12T04:57:06.942Z,7.37
2023-03-12T04:59:09.875Z,7.17
2023-03-12T05:01:22.986Z,7.30
2023-03-12T05:03:26.552Z,6.57
2023-03-12T05:05:29.595Z,6.93
2023-03-12T05:07:34.101Z,6.97
2023-03-12T05:09:37.213Z,7.17
2023-03-12T05:11:41.662Z,6.83
2023-03-12T05:13:45.184Z,6.17
2023-03-12T05:15:51.438Z,6.77
2023-03-12T05:17:54.981Z,6.87
2023-03-12T05:19:58.070Z,6.37
2023-03-12T05:22:01.097Z,7.10
2023-03-12T05:24:04.275Z,6.97
2023-03-12T05:26:09.719Z,6.87
2023-03-12T05:28:15.112Z,6.80
2023-03-12T05:30:18.601Z,6.97
2023-03-12T05:32:21.929Z,6.83
2023-03-12T05:34:24.928Z,7.07
2023-03-12T05:36:28.418Z,7.10
2023-03-12T05:38:31.418Z,7.27
2023-03-12T05:40:34.602Z,6.80
2023-03-12T05:42:37.633Z,6.60
2023-03-12T05:44:42.715Z,6.97
2023-03-12T05:46:45.869Z,6.67
2023-03-12T05:48:48.838Z,6.87
2023-03-12T05:50:51.860Z,6.90
2023-03-12T05:52:55.020Z,7.27
2023-03-12T05:54:58.113Z,7.67
2023-03-12T05:57:03.092Z,6.90
2023-03-12T05:59:06.525Z,6.60
2023-03-12T06:01:15.556Z,6.57
2023-03-12T06:03:18.574Z,7.83
2023-03-12T06:05:24.646Z,6.47
2023-03-12T06:07:29.923Z,7.33
2023-03-12T06:09:33.313Z,7.27
2023-03-12T06:11:36.816Z,6.53
2023-03-12T06:13:39.915Z,7.23
2023-03-12T06:15:42.933Z,6.80
2023-03-12T06:17:47.498Z,6.43
2023-03-12T06:19:52.709Z,6.80
2023-03-12T06:21:55.634Z,6.87
2023-03-12T06:23:59.051Z,6.70
2023-03-12T06:26:05.165Z,6.40
2023-03-12T06:28:08.175Z,7.43
2023-03-12T06:30:14.887Z,7.00
2023-03-12T06:32:18.377Z,6.40
2023-03-12T06:34:22.857Z,6.33
2023-03-12T06:36:25.863Z,6.83
2023-03-12T06:38:29.367Z,6.97
2023-03-12T06:40:32.979Z,6.53
2023-03-12T06:42:36.310Z,6.73
2023-03-12T06:44:39.264Z,6.43
2023-03-12T06:46:44.099Z,6.40
2023-03-12T06:48:47.362Z,6.47
2023-03-12T06:50:54.691Z,6.27
2023-03-12T06:52:57.532Z,5.93
2023-03-12T06:55:00.633Z,6.10
2023-03-12T06:57:03.731Z,6.50
2023-03-12T06:59:06.890Z,5.97
2023-03-12T07:01:10.496Z,6.77
2023-03-12T07:03:13.874Z,6.50
2023-03-12T07:05:17.122Z,5.83
2023-03-12T07:07:21.396Z,5.30
2023-03-12T07:09:25.659Z,5.20
2023-03-12T07:11:28.595Z,5.27
2023-03-12T07:13:31.918Z,5.30
2023-03-12T07:15:35.130Z,4.93
2023-03-12T07:17:37.954Z,5.60
2023-03-12T07:19:40.966Z,5.57
2023-03-12T07:21:44.078Z,5.73
2023-03-12T07:23:48.176Z,5.43
2023-03-12T07:25:51.069Z,5.40
2023-03-12T07:30:52.226Z,5.30
2023-03-12T07:32:57.233Z,5.47
2023-03-12T07:35:05.287Z,5.17
2023-03-12T07:37:08.495Z,5.93
2023-03-12T07:39:15.992Z,5.40
2023-03-12T07:41:20.593Z,5.43
2023-03-12T07:43:24.593Z,5.67
2023-03-12T07:45:31.116Z,6.07
2023-03-12T07:47:34.530Z,5.37
2023-03-12T07:49:46.332Z,5.77
2023-03-12T07:51:52.584Z,6.13
2023-03-12T07:54:09.543Z,6.27
2023-03-12T07:56:14.768Z,6.17
2023-03-12T07:58:18.947Z,5.93
2023-03-12T08:00:25.614Z,5.80
2023-03-12T08:02:28.844Z,5.83
2023-03-12T08:04:34.689Z,5.90
2023-03-12T08:06:42.899Z,5.80
2023-03-12T08:08:46.644Z,5.60
2023-03-12T08:10:50.097Z,5.70
2023-03-12T08:12:56.107Z,5.50
2023-03-12T08:14:59.377Z,5.80
2023-03-12T08:17:02.881Z,6.10
2023-03-12T08:19:07.330Z,6.37
2023-03-12T08:21:10.462Z,6.57
2023-03-12T08:23:13.421Z,6.50
2023-03-12T08:25:18.533Z,6.37
2023-03-12T08:27:22.704Z,7.20
2023-03-12T08:29:33.548Z,6.50
2023-03-12T08:31:36.656Z,6.83
2023-03-12T08:33:46.208Z,7.13
2023-03-12T08:35:50.392Z,7.00
2023-03-12T08:37:53.383Z,7.70
2023-03-12T08:39:57.453Z,8.33
2023-03-12T08:42:00.626Z,7.50
2023-03-12T08:44:04.255Z,7.90
2023-03-12T08:46:11.023Z,7.50
2023-03-12T08:48:15.318Z,7.57
2023-03-12T08:50:18.372Z,7.80
2023-03-12T08:52:23.978Z,8.53
2023-03-12T08:54:27.305Z,7.43
2023-03-12T08:56:32.339Z,7.67
2023-03-12T08:58:38.337Z,7.33
2023-03-12T09:00:41.325Z,8.00
2023-03-12T09:02:46.477Z,7.60
2023-03-12T09:04:49.666Z,8.03
2023-03-12T09:06:52.624Z,7.83
2023-03-12T09:08:55.776Z,7.87
2023-03-12T09:11:04.460Z,7.03
2023-03-12T09:13:08.145Z,7.43
2023-03-12T09:15:11.543Z,7.93
2023-03-12T09:17:17.354Z,8.20
2023-03-12T09:19:21.798Z,9.53
2023-03-12T09:21:25.066Z,10.23
2023-03-12T09:23:29.087Z,10.80
2023-03-12T09:25:32.106Z,10.37
2023-03-12T09:27:38.885Z,10.07
2023-03-12T09:29:57.277Z,10.57
2023-03-12T09:32:03.644Z,10.70
2023-03-12T09:34:07.943Z,11.40
2023-03-12T09:36:12.513Z,11.90
2023-03-12T09:38:15.876Z,12.80
2023-03-12T09:40:22.930Z,12.57
2023-03-12T09:42:29.675Z,12.97
2023-03-12T09:44:37.667Z,12.43
2023-03-12T09:46:46.491Z,12.60
2023-03-12T09:48:51.331Z,13.27
2023-03-12T09:50:55.706Z,13.20
2023-03-12T09:53:03.580Z,12.97
2023-03-12T09:55:14.845Z,13.20
2023-03-12T09:57:23.171Z,13.00
2023-03-12T09:59:26.265Z,12.97
2023-03-12T10:01:39.255Z,12.70
2023-03-12T10:04:06.982Z,13.83
2023-03-12T10:06:19.786Z,13.77
2023-03-12T10:08:36.795Z,14.10
2023-03-12T10:10:50.935Z,13.73
2023-03-12T10:13:16.570Z,13.23
2023-03-12T10:15:32.745Z,14.67
2023-03-12T10:17:53.449Z,14.60
2023-03-12T10:20:27.164Z,16.10
2023-03-12T10:22:50.367Z,15.13
2023-03-12T10:25:01.826Z,15.73
2023-03-12T10:27:12.690Z,17.40
2023-03-12T10:29:19.821Z,17.03
2023-03-12T10:31:27.650Z,17.93
2023-03-12T10:33:42.316Z,17.80
2023-03-12T10:35:45.870Z,18.30
2023-03-12T10:37:51.472Z,18.70
2023-03-12T10:39:56.757Z,20.27
2023-03-12T10:42:02.105Z,20.33
2023-03-12T10:44:09.041Z,22.47
2023-03-12T10:46:36.218Z,22.13
2023-03-12T10:48:39.302Z,20.87
2023-03-12T10:50:42.661Z,20.30
2023-03-12T10:52:54.873Z,21.37
2023-03-12T10:55:14.480Z,21.60
2023-03-12T10:57:18.334Z,21.83
2023-03-12T10:59:29.840Z,19.73
2023-03-12T11:01:33.441Z,20.10
2023-03-12T11:03:36.477Z,21.63
2023-03-12T11:05:49.723Z,21.33
2023-03-12T11:07:52.988Z,19.37
2023-03-12T11:10:21.023Z,19.50
2023-03-12T11:12:27.512Z,18.87
2023-03-12T11:15:19.299Z,18.10
2023-03-12T11:17:24.424Z,17.97
2023-03-12T11:19:30.006Z,18.63
2023-03-12T11:21:37.121Z,19.40
2023-03-12T11:23:44.902Z,18.53
2023-03-12T11:25:55.698Z,19.07
2023-03-12T11:28:04.777Z,19.17
2023-03-12T11:30:13.676Z,19.63
2023-03-12T11:32:19.013Z,19.27
2023-03-12T11:34:25.666Z,18.40
2023-03-12T11:36:43.713Z,18.10
2023-03-12T11:38:56.511Z,16.73
2023-03-12T11:41:11.533Z,18.00
2023-03-12T11:43:43.242Z,16.70
2023-03-12T11:46:03.767Z,17.80
2023-03-12T11:48:18.807Z,17.30
2023-03-12T11:50:33.648Z,16.63
2023-03-12T11:52:53.589Z,17.00
2023-03-12T11:55:17.566Z,17.27
2023-03-12T11:57:31.706Z,18.40
2023-03-12T11:59:50.638Z,16.70
2023-03-12T12:02:04.597Z,16.93
2023-03-12T12:04:34.896Z,17.00
2023-03-12T12:06:48.136Z,16.97
2023-03-12T12:09:09.470Z,17.83
2023-03-12T12:11:19.926Z,17.67
2023-03-12T12:13:34.496Z,17.47
2023-03-12T12:15:47.537Z,16.63
2023-03-12T12:18:03.537Z,18.03
2023-03-12T12:20:20.031Z,16.10
2023-03-12T12:22:52.270Z,15.33
2023-03-12T12:25:21.357Z,15.60
2023-03-12T12:27:27.274Z,15.30
2023-03-12T12:29:43.495Z,16.17
2023-03-12T12:31:52.195Z,15.10
2023-03-12T12:34:10.546Z,14.83
2023-03-12T12:36:15.413Z,14.73
2023-03-12T12:38:29.840Z,15.00
2023-03-12T12:40:37.715Z,14.17
2023-03-12T12:42:54.222Z,13.97
2023-03-12T12:45:01.344Z,14.30
2023-03-12T12:47:07.900Z,13.40
2023-03-12T12:49:14.933Z,14.23
2023-03-12T12:51:22.299Z,12.80
2023-03-12T12:53:28.958Z,12.57
2023-03-12T12:55:36.293Z,12.17
2023-03-12T12:57:42.753Z,12.27
2023-03-12T12:59:57.669Z,12.90
2023-03-12T13:02:14.276Z,13.30
2023-03-12T13:04:24.045Z,12.27
2023-03-12T13:06:29.801Z,12.13
2023-03-12T13:08:35.410Z,12.70
2023-03-12T13:10:53.078Z,12.87
2023-03-12T13:13:04.582Z,12.53
2023-03-12T13:15:39.824Z,11.43
2023-03-12T13:18:06.477Z,11.23
2023-03-12T13:20:17.271Z,11.87
2023-03-12T13:22:30.243Z,12.20
2023-03-12T13:24:36.389Z,11.70
2023-03-12T13:26:52.125Z,11.93
2023-03-12T13:29:21.269Z,12.00
2023-03-12T13:31:37.388Z,11.53
2023-03-12T13:33:48.067Z,12.80
2023-03-12T13:36:23.481Z,12.03
2023-03-12T13:38:36.871Z,12.47
2023-03-12T13:41:00.668Z,12.67
2023-03-12T13:43:11.643Z,13.20
2023-03-12T13:45:26.520Z,12.70
2023-03-12T13:47:31.334Z,12.70
2023-03-12T13:49:41.747Z,13.70
2023-03-12T13:51:56.631Z,13.83
2023-03-12T13:54:01.330Z,13.13
2023-03-12T13:56:08.134Z,13.33
2023-03-12T13:58:16.720Z,13.13
2023-03-12T14:00:26.093Z,13.87
2023-03-12T14:02:32.296Z,13.83
2023-03-12T14:04:39.716Z,14.43
2023-03-12T14:07:01.814Z,13.50
2023-03-12T14:09:24.070Z,13.43
2023-03-12T14:11:43.375Z,13.17
2023-03-12T14:14:06.494Z,13.50
2023-03-12T14:16:19.343Z,13.27
2023-03-12T14:18:25.092Z,13.27
2023-03-12T14:20:31.153Z,14.00
2023-03-12T14:22:37.683Z,14.10
2023-03-12T14:24:42.837Z,14.30
2023-03-12T14:26:49.139Z,13.37
2023-03-12T14:29:00.202Z,13.40
2023-03-12T14:31:06.310Z,14.03
2023-03-12T14:33:13.071Z,13.87
2023-03-12T14:35:21.743Z,13.67
2023-03-12T14:37:32.484Z,13.37
2023-03-12T14:39:40.043Z,13.53
2023-03-12T14:41:45.862Z,13.93
2023-03-12T14:43:53.305Z,14.13
2023-03-12T14:45:57.396Z,14.80
2023-03-12T14:48:00.278Z,14.73
2023-03-12T14:50:03.883Z,14.30
2023-03-12T14:52:07.900Z,14.10
2023-03-12T14:54:20.073Z,15.13
2023-03-12T14:56:30.315Z,14.50
2023-03-12T14:58:34.435Z,14.57
2023-03-12T15:00:37.391Z,15.00
2023-03-12T15:02:41.231Z,13.67
2023-03-12T15:04:44.783Z,13.63
2023-03-12T15:06:50.046Z,13.83
2023-03-12T15:08:53.111Z,13.93
2023-03-12T15:11:01.695Z,13.37
2023-03-12T15:13:06.190Z,13.53
2023-03-12T15:15:11.716Z,12.97
2023-03-12T15:17:18.419Z,12.83
2023-03-12T15:19:26.212Z,12.00
2023-03-12T15:21:29.263Z,13.17
2023-03-12T15:23:34.499Z,11.70
2023-03-12T15:25:38.241Z,11.27
2023-03-12T15:27:42.576Z,12.47
2023-03-12T15:29:45.494Z,11.30
2023-03-12T15:31:50.421Z,11.03
2023-03-12T15:34:05.507Z,11.63
2023-03-12T15:36:24.714Z,11.03
2023-03-12T15:38:28.507Z,11.47
2023-03-12T15:40:32.545Z,11.57
2023-03-12T15:42:41.056Z,11.90
2023-03-12T15:44:49.087Z,11.00
2023-03-12T15:46:54.691Z,12.23
2023-03-12T15:49:00.232Z,12.23
2023-03-12T15:51:03.636Z,11.60
2023-03-12T15:53:25.436Z,11.60
2023-03-12T15:55:30.913Z,12.63
2023-03-12T15:57:34.883Z,12.20
2023-03-12T15:59:37.826Z,12.87
2023-03-12T16:01:49.237Z,13.90
2023-03-12T16:03:52.171Z,14.13
2023-03-12T16:06:04.464Z,13.60
2023-03-12T16:08:16.941Z,13.90
2023-03-12T16:10:23.221Z,13.70
2023-03-12T16:12:26.288Z,12.93
2023-03-12T16:14:35.526Z,13.93
2023-03-12T16:16:41.156Z,13.50
2023-03-12T16:18:45.744Z,14.30
2023-03-12T16:20:49.967Z,13.67
2023-03-12T16:22:55.842Z,13.20
2023-03-12T16:25:01.009Z,13.83
2023-03-12T16:27:06.526Z,12.97
2023-03-12T16:29:13.557Z,13.50
2023-03-12T16:31:17.323Z,13.30
2023-03-12T16:33:22.868Z,13.70
2023-03-12T16:35:28.252Z,14.00
2023-03-12T16:37:31.981Z,16.90
2023-03-12T16:39:35.117Z,13.87
2023-03-12T16:41:38.160Z,13.20
2023-03-12T16:43:42.350Z,13.40
2023-03-12T16:45:47.766Z,14.30
2023-03-12T16:47:59.011Z,14.03
2023-03-12T16:50:02.381Z,13.70
2023-03-12T16:52:21.130Z,14.77
2023-03-12T16:54:27.147Z,13.83
2023-03-12T16:56:30.167Z,13.93
2023-03-12T16:58:33.444Z,13.83
2023-03-12T17:00:36.902Z,13.63
2023-03-12T17:02:40.200Z,14.30
2023-03-12T17:04:43.133Z,15.00
2023-03-12T17:06:47.114Z,14.47
2023-03-12T17:08:52.215Z,15.63
2023-03-12T17:10:56.705Z,15.53
2023-03-12T17:12:59.803Z,16.20
2023-03-12T17:15:04.878Z,15.70
2023-03-12T17:17:07.825Z,16.07
2023-03-12T17:19:12.824Z,17.10
2023-03-12T17:21:18.215Z,16.23
2023-03-12T17:23:22.765Z,16.10
2023-03-12T17:25:29.217Z,16.63
2023-03-12T17:27:33.820Z,16.23
2023-03-12T17:29:36.885Z,16.67
2023-03-12T17:31:41.905Z,17.03
2023-03-12T17:33:45.216Z,17.77
2023-03-12T17:35:57.710Z,17.27
2023-03-12T17:38:01.080Z,17.20
2023-03-12T17:40:08.150Z,16.97
2023-03-12T17:42:20.905Z,18.07
2023-03-12T17:46:56.687Z,17.67
2023-03-12T17:49:04.559Z,17.40
2023-03-12T17:51:08.576Z,16.80
2023-03-12T17:53:12.024Z,17.80
2023-03-12T17:55:15.061Z,17.27
2023-03-12T17:57:19.461Z,17.17
2023-03-12T17:59:22.598Z,16.87
2023-03-12T18:01:25.550Z,16.43
2023-03-12T18:03:28.699Z,16.97
2023-03-12T18:05:31.801Z,17.37
2023-03-12T18:07:34.956Z,17.23
2023-03-12T18:09:37.888Z,17.77
2023-03-12T18:11:40.794Z,16.70
2023-03-12T18:13:45.237Z,17.07
2023-03-12T18:15:52.516Z,17.23
2023-03-12T18:17:56.785Z,16.93
2023-03-12T18:19:59.884Z,16.73
2023-03-12T18:22:10.992Z,16.07
2023-03-12T18:24:14.844Z,16.20
2023-03-12T18:26:18.036Z,17.13
2023-03-12T18:28:21.078Z,16.93
2023-03-12T18:30:25.513Z,17.07
2023-03-12T18:32:28.581Z,17.00
2023-03-12T18:34:31.498Z,16.87
2023-03-12T18:36:34.376Z,16.47
2023-03-12T18:38:37.355Z,16.67
2023-03-12T18:40:40.367Z,15.87
2023-03-12T18:42:44.409Z,16.40
2023-03-12T18:44:50.978Z,15.70
2023-03-12T18:46:55.533Z,16.20
2023-03-12T18:49:04.141Z,16.13
2023-03-12T18:51:21.342Z,15.40
2023-03-12T18:53:30.109Z,15.20
2023-03-12T18:55:35.980Z,14.60
2023-03-12T18:57:38.853Z,15.43
2023-03-12T18:59:45.166Z,15.70
2023-03-12T19:01:48.260Z,15.37
2023-03-12T19:03:52.635Z,14.33
2023-03-12T19:06:03.092Z,13.87
2023-03-12T19:08:06.975Z,14.40
2023-03-12T19:10:11.221Z,14.40
2023-03-12T19:12:14.612Z,15.00
2023-03-12T19:14:17.571Z,13.53
2023-03-12T19:16:22.446Z,13.93
2023-03-12T19:18:25.360Z,12.80
2023-03-12T19:20:31.138Z,13.30
2023-03-12T19:22:34.421Z,12.77
2023-03-12T19:24:37.261Z,13.23
2023-03-12T19:26:40.248Z,12.93
2023-03-12T19:28:44.043Z,12.50
2023-03-12T19:30:47.126Z,12.30
2023-03-12T19:32:51.524Z,12.43
2023-03-12T19:34:55.483Z,11.87
2023-03-12T19:36:59.764Z,12.13
2023-03-12T19:39:06.771Z,11.20
2023-03-12T19:41:14.816Z,11.83
2023-03-12T19:43:18.403Z,11.53
2023-03-12T19:45:21.464Z,11.00
2023-03-12T19:47:24.726Z,11.50
2023-03-12T19:49:27.668Z,11.57
2023-03-12T19:51:30.541Z,11.23
2023-03-12T19:53:35.159Z,10.60
2023-03-12T19:55:38.133Z,11.37
2023-03-12T19:57:41.068Z,10.60
2023-03-12T19:59:43.922Z,10.90
2023-03-12T20:01:48.741Z,10.53
2023-03-12T20:03:51.598Z,11.10
2023-03-12T20:05:54.503Z,9.40
2023-03-12T20:07:57.313Z,9.83
2023-03-12T20:10:01.644Z,10.23
2023-03-12T20:12:05.176Z,9.97
2023-03-12T20:14:08.161Z,10.07
2023-03-12T20:16:12.974Z,9.90
2023-03-12T20:18:16.022Z,10.17
2023-03-12T20:20:19.046Z,9.97
2023-03-12T20:22:22.014Z,9.33
2023-03-12T20:24:24.930Z,9.70
2023-03-12T20:26:29.268Z,8.67
2023-03-12T20:28:32.018Z,9.07
2023-03-12T20:30:36.930Z,8.77
2023-03-12T20:32:39.790Z,8.63
2023-03-12T20:34:42.589Z,8.67
2023-03-12T20:36:45.416Z,8.83
2023-03-12T20:38:49.409Z,8.10
2023-03-12T20:40:52.249Z,8.00
2023-03-12T20:42:57.194Z,8.23
2023-03-12T20:44:59.995Z,7.80
2023-03-12T20:47:02.880Z,7.70
2023-03-12T20:49:05.866Z,7.87
2023-03-12T20:51:08.707Z,7.53
2023-03-12T20:53:12.042Z,8.13
2023-03-12T20:55:16.083Z,7.93
2023-03-12T20:57:18.901Z,7.63
2023-03-12T20:59:23.208Z,7.83
2023-03-12T21:01:26.223Z,7.50
2023-03-12T21:03:30.608Z,7.23
2023-03-12T21:05:33.422Z,7.80
2023-03-12T21:07:36.315Z,7.57
2023-03-12T21:10:14.751Z,7.67
2023-03-12T21:12:17.837Z,8.33
2023-03-12T21:14:20.812Z,8.60
2023-03-12T21:16:25.230Z,8.00
2023-03-12T21:18:28.891Z,7.13
2023-03-12T21:20:32.116Z,8.20
2023-03-12T21:22:35.160Z,7.97
2023-03-12T21:24:38.186Z,7.43
2023-03-12T21:26:41.116Z,7.40
2023-03-12T21:28:46.408Z,7.80
2023-03-12T21:30:49.421Z,8.50
2023-03-12T21:32:56.821Z,8.10
2023-03-12T21:34:59.775Z,8.30
2023-03-12T21:37:02.643Z,7.67
2023-03-12T21:39:05.539Z,8.60
2023-03-12T21:41:09.859Z,8.03
2023-03-12T21:43:12.754Z,7.57
2023-03-12T21:45:15.838Z,7.73
2023-03-12T21:47:18.751Z,8.27
2023-03-12T21:49:23.271Z,7.63
2023-03-12T21:51:26.796Z,9.33
2023-03-12T21:53:29.642Z,8.13
2023-03-12T21:55:32.464Z,7.10
2023-03-12T21:57:35.485Z,7.60
2023-03-12T21:59:38.327Z,7.20
2023-03-12T22:01:41.274Z,8.10
2023-03-12T22:03:45.323Z,7.40
2023-03-12T22:05:53.069Z,7.67
2023-03-12T22:07:56.036Z,7.27
2023-03-12T22:09:58.850Z,7.00
2023-03-12T22:12:03.306Z,7.00
2023-03-12T22:14:06.187Z,7.40
2023-03-12T22:16:10.179Z,6.83
2023-03-12T22:18:13.000Z,6.83
2023-03-12T22:20:16.262Z,7.80
2023-03-12T22:22:20.416Z,6.27
2023-03-12T22:24:23.282Z,7.10
2023-03-12T22:26:26.532Z,6.27
2023-03-12T22:28:29.359Z,6.47
2023-03-12T22:30:32.463Z,7.23
2023-03-12T22:32:35.261Z,7.37
2023-03-12T22:34:38.959Z,7.27
2023-03-12T22:36:41.826Z,6.63
2023-03-12T22:38:47.497Z,6.83
2023-03-12T22:40:50.658Z,6.40
2023-03-12T22:42:56.060Z,6.47
2023-03-12T22:44:58.821Z,7.00
2023-03-12T22:47:01.627Z,6.50
2023-03-12T22:49:05.814Z,6.77
2023-03-12T22:51:08.634Z,6.83
2023-03-12T22:53:11.386Z,6.37
2023-03-12T22:55:15.672Z,6.63
2023-03-12T22:57:18.436Z,6.37
2023-03-12T22:59:21.272Z,6.97
2023-03-12T23:01:24.650Z,6.30
2023-03-12T23:03:28.111Z,6.50
2023-03-12T23:05:30.825Z,5.80
2023-03-12T23:07:33.886Z,6.33
2023-03-12T23:09:36.742Z,5.47
2023-03-12T23:11:41.258Z,6.53
2023-03-12T23:13:46.068Z,6.20
2023-03-12T23:15:48.949Z,5.97
2023-03-12T23:17:52.357Z,6.27
2023-03-12T23:19:55.147Z,6.07
2023-03-12T23:21:57.923Z,5.83
2023-03-12T23:24:00.794Z,6.10
2023-03-12T23:26:03.961Z,5.90
2023-03-12T23:28:08.483Z,5.77
2023-03-12T23:30:12.767Z,5.80
2023-03-12T23:32:15.737Z,5.90
2023-03-12T23:34:19.334Z,6.53
2023-03-12T23:36:26.670Z,6.13
2023-03-12T23:38:30.652Z,6.60
2023-03-12T23:40:33.517Z,5.50
2023-03-12T23:42:36.272Z,5.80
2023-03-12T23:44:40.411Z,5.30
2023-03-12T23:46:44.725Z,5.50
2023-03-12T23:48:47.824Z,5.40
2023-03-12T23:50:50.609Z,5.70
2023-03-12T23:52:54.727Z,5.47
2023-03-12T23:54:57.528Z,4.70
2023-03-12T23:57:00.318Z,5.30
2023-03-12T23:59:05.309Z,6.13
